createdAt,value
2022-11-29T00:00:03.386Z,15.20
2022-11-29T00:02:40.731Z,15.10
2022-11-29T00:05:09.359Z,16.40
2022-11-29T00:07:37.374Z,16.35
2022-11-29T00:10:08.314Z,15.98
2022-11-29T00:12:35.350Z,14.63
2022-11-29T00:15:03.346Z,16.33
2022-11-29T00:17:31.386Z,16.83
2022-11-29T00:19:59.338Z,15.25
2022-11-29T00:22:27.297Z,16.55
2022-11-29T00:24:55.252Z,15.93
2022-11-29T00:27:24.562Z,16.27
2022-11-29T00:32:20.320Z,13.95
2022-11-29T00:34:48.299Z,15.10
2022-11-29T00:37:16.370Z,14.98
2022-11-29T00:39:44.333Z,16.55
2022-11-29T00:42:12.285Z,15.40
2022-11-29T00:44:41.787Z,15.23
2022-11-29T00:47:10.007Z,14.52
2022-11-29T00:49:37.952Z,15.02
2022-11-29T00:52:06.314Z,14.65
2022-11-29T00:54:34.372Z,14.50
2022-11-29T00:57:02.294Z,14.77
2022-11-29T00:59:30.498Z,14.90
2022-11-29T01:01:59.897Z,15.05
2022-11-29T01:04:27.897Z,15.18
2022-11-29T01:06:55.860Z,14.00
2022-11-29T01:09:23.977Z,14.27
2022-11-29T01:11:51.971Z,13.85
2022-11-29T01:14:19.935Z,14.50
2022-11-29T01:16:48.103Z,14.80
2022-11-29T01:19:17.513Z,15.30
2022-11-29T01:24:13.207Z,13.98
2022-11-29T01:26:41.202Z,14.93
2022-11-29T01:29:09.147Z,13.23
2022-11-29T01:31:37.140Z,13.23
2022-11-29T01:34:07.293Z,12.55
2022-11-29T01:36:36.759Z,13.98
2022-11-29T01:39:06.759Z,14.32
2022-11-29T01:41:37.926Z,13.93
2022-11-29T01:44:08.163Z,13.73
2022-11-29T01:46:38.501Z,13.48
2022-11-29T01:49:11.341Z,13.70
2022-11-29T01:51:44.220Z,13.45
2022-11-29T01:54:13.655Z,13.43
2022-11-29T01:56:43.757Z,13.95
2022-11-29T01:59:15.138Z,13.18
2022-11-29T02:01:46.292Z,14.07
2022-11-29T02:04:15.240Z,13.65
2022-11-29T02:06:44.806Z,13.07
2022-11-29T02:09:20.242Z,14.20
2022-11-29T02:12:11.723Z,12.90
2022-11-29T02:14:56.902Z,14.25
2022-11-29T02:17:34.309Z,14.35
2022-11-29T02:20:36.533Z,13.32
2022-11-29T02:23:21.896Z,14.13
2022-11-29T02:26:05.591Z,14.80
2022-11-29T02:29:01.412Z,14.30
2022-11-29T02:32:02.160Z,14.20
2022-11-29T02:34:52.161Z,14.27
2022-11-29T02:37:41.176Z,15.05
2022-11-29T02:40:28.479Z,14.38
2022-11-29T02:43:48.170Z,15.00
2022-11-29T02:46:40.543Z,15.30
2022-11-29T02:49:19.746Z,15.65
2022-11-29T02:54:27.657Z,14.98
2022-11-29T02:57:00.351Z,14.93
2022-11-29T02:59:44.263Z,16.35
2022-11-29T03:02:22.634Z,15.07
2022-11-29T03:04:59.515Z,15.27
2022-11-29T03:07:40.639Z,15.57
2022-11-29T03:10:18.960Z,16.83
2022-11-29T03:12:49.968Z,16.10
2022-11-29T03:15:28.508Z,15.30
2022-11-29T03:18:11.721Z,16.63
2022-11-29T03:20:51.682Z,16.55
2022-11-29T03:23:25.377Z,15.77
2022-11-29T03:25:58.543Z,16.00
2022-11-29T03:28:32.310Z,15.45
2022-11-29T03:31:07.086Z,16.00
2022-11-29T03:33:45.798Z,15.77
2022-11-29T03:36:24.542Z,16.65
2022-11-29T03:38:57.968Z,16.42
2022-11-29T03:41:31.804Z,17.77
2022-11-29T03:44:04.647Z,16.98
2022-11-29T03:46:39.064Z,17.52
2022-11-29T03:49:14.568Z,17.63
2022-11-29T03:51:54.466Z,17.70
2022-11-29T03:54:29.165Z,17.10
2022-11-29T03:56:57.637Z,17.58
2022-11-29T03:59:41.619Z,15.73
2022-11-29T04:02:40.020Z,15.88
2022-11-29T04:05:37.555Z,16.05
2022-11-29T04:08:44.204Z,17.35
2022-11-29T04:11:37.515Z,17.33
2022-11-29T04:14:32.368Z,17.15
2022-11-29T04:17:33.940Z,17.58
2022-11-29T04:20:23.374Z,16.45
2022-11-29T04:23:26.882Z,18.08
2022-11-29T04:26:21.547Z,16.13
2022-11-29T04:29:12.200Z,17.33
2022-11-29T04:32:02.663Z,16.23
2022-11-29T04:35:00.119Z,15.60
2022-11-29T04:37:50.468Z,16.45
2022-11-29T04:40:36.418Z,15.57
2022-11-29T04:43:34.407Z,15.55
2022-11-29T04:46:27.679Z,16.60
2022-11-29T04:49:07.685Z,14.93
2022-11-29T04:51:47.355Z,15.15
2022-11-29T04:54:28.177Z,20.92
2022-11-29T04:57:03.007Z,13.10
2022-11-29T04:59:36.782Z,14.15
2022-11-29T05:02:17.375Z,13.23
2022-11-29T05:04:51.920Z,12.52
2022-11-29T05:07:30.784Z,12.85
2022-11-29T05:10:08.064Z,12.70
2022-11-29T05:12:43.128Z,12.50
2022-11-29T05:15:51.018Z,14.40
2022-11-29T05:18:33.783Z,14.68
2022-11-29T05:21:09.824Z,12.13
2022-11-29T05:23:49.783Z,12.13
2022-11-29T05:26:23.979Z,11.88
2022-11-29T05:29:02.809Z,12.38
2022-11-29T05:31:46.979Z,12.15
2022-11-29T05:34:45.963Z,13.50
2022-11-29T05:37:28.024Z,11.60
2022-11-29T05:40:17.519Z,11.18
2022-11-29T05:43:02.306Z,11.20
2022-11-29T05:45:36.051Z,12.55
2022-11-29T05:48:12.224Z,12.48
2022-11-29T05:50:46.808Z,11.95
2022-11-29T05:53:25.766Z,11.65
2022-11-29T05:56:03.731Z,11.35
2022-11-29T05:58:44.624Z,12.80
2022-11-29T06:01:21.680Z,12.77
2022-11-29T06:03:58.878Z,11.25
2022-11-29T06:06:39.618Z,11.35
2022-11-29T06:09:16.604Z,11.38
2022-11-29T06:11:47.836Z,11.68
2022-11-29T06:14:35.105Z,11.15
2022-11-29T06:17:18.627Z,12.77
2022-11-29T06:20:11.147Z,11.43
2022-11-29T06:23:06.239Z,11.45
2022-11-29T06:25:49.671Z,11.45
2022-11-29T06:28:33.672Z,12.02
2022-11-29T06:31:13.188Z,11.93
2022-11-29T06:33:52.761Z,11.43
2022-11-29T06:36:28.036Z,10.93
2022-11-29T06:38:57.900Z,10.25
2022-11-29T06:41:26.741Z,11.60
2022-11-29T06:43:55.232Z,11.48
2022-11-29T06:46:34.381Z,10.63
2022-11-29T06:51:38.944Z,10.85
2022-11-29T06:54:32.834Z,9.82
2022-11-29T06:57:13.057Z,10.90
2022-11-29T06:59:56.569Z,11.02
2022-11-29T07:02:35.668Z,10.85
2022-11-29T07:05:13.975Z,10.98
2022-11-29T07:07:43.158Z,9.77
2022-11-29T07:10:18.261Z,10.60
2022-11-29T07:12:47.354Z,10.27
2022-11-29T07:15:17.177Z,10.15
2022-11-29T07:17:57.283Z,10.00
2022-11-29T07:20:35.409Z,10.02
2022-11-29T07:23:14.084Z,10.32
2022-11-29T07:25:57.162Z,10.45
2022-11-29T07:28:39.211Z,10.15
2022-11-29T07:31:13.237Z,10.65
2022-11-29T07:33:50.165Z,10.35
2022-11-29T07:36:28.276Z,10.23
2022-11-29T07:39:04.990Z,10.15
2022-11-29T07:41:41.115Z,10.25
2022-11-29T07:44:17.150Z,10.15
2022-11-29T07:46:45.407Z,10.15
2022-11-29T07:49:13.451Z,10.82
2022-11-29T07:51:41.506Z,10.63
2022-11-29T07:54:11.861Z,10.90
2022-11-29T07:56:41.274Z,10.30
2022-11-29T07:59:11.065Z,10.98
2022-11-29T08:01:39.163Z,9.88
2022-11-29T08:04:08.248Z,10.23
2022-11-29T08:06:36.776Z,10.10
2022-11-29T08:09:06.839Z,10.48
2022-11-29T08:11:34.875Z,10.45
2022-11-29T08:14:05.696Z,10.18
2022-11-29T08:16:34.018Z,10.15
2022-11-29T08:19:02.001Z,9.82
2022-11-29T08:21:30.080Z,9.63
2022-11-29T08:23:58.042Z,10.80
2022-11-29T08:26:31.253Z,9.70
2022-11-29T08:28:59.682Z,10.38
2022-11-29T08:31:29.083Z,10.75
2022-11-29T08:33:57.172Z,10.55
2022-11-29T08:36:25.147Z,9.77
2022-11-29T08:39:01.257Z,10.38
2022-11-29T08:41:31.918Z,9.70
2022-11-29T08:43:59.841Z,10.13
2022-11-29T08:46:49.151Z,10.35
2022-11-29T08:49:17.542Z,9.50
2022-11-29T08:51:45.527Z,10.40
2022-11-29T08:54:12.759Z,9.77
2022-11-29T08:59:31.958Z,9.80
2022-11-29T09:02:01.355Z,9.82
2022-11-29T09:04:29.523Z,9.85
2022-11-29T09:06:57.453Z,9.40
2022-11-29T09:09:25.410Z,9.70
2022-11-29T09:11:53.323Z,10.50
2022-11-29T09:14:22.883Z,10.57
2022-11-29T09:16:50.921Z,10.38
2022-11-29T09:19:20.399Z,10.63
2022-11-29T09:21:48.317Z,9.02
2022-11-29T09:24:16.431Z,10.50
2022-11-29T09:26:48.211Z,10.23
2022-11-29T09:29:17.393Z,9.30
2022-11-29T09:34:13.766Z,9.25
2022-11-29T09:36:46.218Z,9.63
2022-11-29T09:39:14.198Z,9.23
2022-11-29T09:41:58.670Z,10.57
2022-11-29T09:44:37.163Z,9.80
2022-11-29T09:47:20.287Z,10.68
2022-11-29T09:49:59.758Z,9.95
2022-11-29T09:52:40.008Z,8.73
2022-11-29T09:55:26.877Z,10.60
2022-11-29T09:57:56.446Z,9.48
2022-11-29T10:00:26.091Z,9.38
2022-11-29T10:03:00.524Z,9.05
2022-11-29T10:05:32.970Z,8.98
2022-11-29T10:08:07.717Z,8.77
2022-11-29T10:10:41.659Z,8.88
2022-11-29T10:13:18.397Z,9.00
2022-11-29T10:15:51.888Z,8.38
2022-11-29T10:18:24.179Z,7.82
2022-11-29T10:20:54.292Z,8.25
2022-11-29T10:23:27.750Z,8.23
2022-11-29T10:25:57.691Z,8.60
2022-11-29T10:28:30.630Z,10.07
2022-11-29T10:31:04.362Z,9.23
2022-11-29T10:33:36.289Z,9.13
2022-11-29T10:36:08.760Z,9.43
2022-11-29T10:38:38.097Z,8.68
2022-11-29T10:41:09.125Z,9.00
2022-11-29T10:43:38.059Z,8.63
2022-11-29T10:46:07.576Z,8.80
2022-11-29T10:48:35.937Z,8.93
2022-11-29T10:51:03.940Z,8.73
2022-11-29T10:53:37.088Z,9.48
2022-11-29T10:56:09.661Z,10.93
2022-11-29T10:58:37.707Z,10.18
2022-11-29T11:01:07.814Z,8.88
2022-11-29T11:03:39.405Z,10.55
2022-11-29T11:06:11.988Z,8.48
2022-11-29T11:08:44.453Z,8.68
2022-11-29T11:11:15.263Z,8.65
2022-11-29T11:13:43.388Z,7.97
2022-11-29T11:16:17.896Z,8.98
2022-11-29T11:18:47.145Z,8.80
2022-11-29T11:23:53.462Z,8.80
2022-11-29T11:26:24.098Z,8.90
2022-11-29T11:28:56.289Z,8.02
2022-11-29T11:31:30.618Z,9.02
2022-11-29T11:33:58.649Z,9.48
2022-11-29T11:36:28.309Z,8.85
2022-11-29T11:38:59.168Z,8.10
2022-11-29T11:41:44.705Z,9.63
2022-11-29T11:44:48.673Z,8.70
2022-11-29T11:47:19.521Z,9.50
2022-11-29T11:49:50.245Z,8.65
2022-11-29T11:52:22.358Z,9.18
2022-11-29T11:54:54.740Z,8.75
2022-11-29T11:57:26.561Z,8.20
2022-11-29T12:00:06.407Z,8.15
2022-11-29T12:02:41.677Z,8.77
2022-11-29T12:05:15.787Z,8.23
2022-11-29T12:10:40.501Z,8.85
2022-11-29T12:13:19.298Z,8.80
2022-11-29T12:15:50.952Z,8.63
2022-11-29T12:18:25.585Z,8.23
2022-11-29T12:20:58.277Z,9.60
2022-11-29T12:23:34.299Z,8.77
2022-11-29T12:26:08.093Z,8.85
2022-11-29T12:28:41.275Z,8.35
2022-11-29T12:31:24.721Z,9.88
2022-11-29T12:34:09.180Z,7.80
2022-11-29T12:36:48.067Z,8.02
2022-11-29T12:39:28.080Z,7.97
2022-11-29T12:42:00.512Z,7.88
2022-11-29T12:44:43.106Z,8.60
2022-11-29T12:47:39.088Z,8.68
2022-11-29T12:50:29.147Z,7.20
2022-11-29T12:53:10.568Z,9.32
2022-11-29T12:55:50.108Z,7.45
2022-11-29T12:58:27.758Z,7.50
2022-11-29T13:01:05.383Z,7.18
2022-11-29T13:03:44.365Z,8.30
2022-11-29T13:06:28.552Z,7.07
2022-11-29T13:09:15.491Z,7.03
2022-11-29T13:11:50.348Z,7.22
2022-11-29T13:17:28.042Z,7.45
2022-11-29T13:20:00.008Z,7.15
2022-11-29T13:22:33.490Z,7.13
2022-11-29T13:25:04.709Z,8.05
2022-11-29T13:27:36.000Z,12.60
2022-11-29T13:30:06.141Z,7.88
2022-11-29T13:32:39.770Z,8.70
2022-11-29T13:35:17.292Z,8.52
2022-11-29T13:37:54.935Z,12.65
2022-11-29T13:40:33.474Z,8.27
2022-11-29T13:43:11.808Z,8.43
2022-11-29T13:45:47.392Z,8.75
2022-11-29T13:48:37.640Z,6.32
2022-11-29T13:51:38.187Z,6.40
2022-11-29T13:54:07.919Z,7.13
2022-11-29T13:56:46.516Z,7.15
2022-11-29T13:59:20.734Z,7.05
2022-11-29T14:01:51.591Z,6.88
2022-11-29T14:04:32.189Z,7.40
2022-11-29T14:07:09.916Z,7.13
2022-11-29T14:09:58.698Z,7.20
2022-11-29T14:12:37.711Z,7.78
2022-11-29T14:15:18.875Z,8.60
2022-11-29T14:17:50.225Z,8.32
2022-11-29T14:21:01.556Z,7.65
2022-11-29T14:23:37.973Z,8.30
2022-11-29T14:26:29.568Z,8.18
2022-11-29T14:28:59.323Z,7.18
2022-11-29T14:31:55.998Z,8.30
2022-11-29T14:34:35.764Z,8.52
2022-11-29T14:37:16.967Z,8.48
2022-11-29T14:39:47.875Z,8.02
2022-11-29T14:42:18.758Z,8.75
2022-11-29T14:44:52.095Z,10.23
2022-11-29T14:47:29.753Z,10.68
2022-11-29T14:50:00.167Z,9.02
2022-11-29T14:52:32.481Z,8.85
2022-11-29T14:55:04.413Z,8.52
2022-11-29T14:57:53.982Z,9.60
2022-11-29T15:00:23.544Z,8.95
2022-11-29T15:02:54.178Z,11.18
2022-11-29T15:05:29.054Z,8.52
2022-11-29T15:08:10.466Z,9.93
2022-11-29T15:10:42.320Z,10.18
2022-11-29T15:13:14.004Z,10.48
2022-11-29T15:16:08.876Z,10.02
2022-11-29T15:18:59.771Z,10.00
2022-11-29T15:21:36.560Z,9.88
2022-11-29T15:24:13.026Z,10.23
2022-11-29T15:26:55.290Z,9.93
2022-11-29T15:29:23.607Z,11.35
2022-11-29T15:31:55.268Z,10.00
2022-11-29T15:34:30.600Z,10.20
2022-11-29T15:36:58.670Z,10.55
2022-11-29T15:39:31.347Z,10.57
2022-11-29T15:42:04.285Z,10.15
2022-11-29T15:44:33.819Z,10.55
2022-11-29T15:47:22.156Z,11.43
2022-11-29T15:49:50.363Z,10.93
2022-11-29T15:52:25.461Z,12.00
2022-11-29T15:55:01.772Z,10.90
2022-11-29T15:57:35.543Z,11.02
2022-11-29T16:00:06.291Z,10.30
2022-11-29T16:02:37.169Z,10.57
2022-11-29T16:05:15.018Z,10.32
2022-11-29T16:07:44.373Z,11.52
2022-11-29T16:12:53.989Z,11.30
2022-11-29T16:15:31.188Z,10.80
2022-11-29T16:18:04.686Z,10.68
2022-11-29T16:20:32.989Z,11.93
2022-11-29T16:23:14.436Z,8.68
2022-11-29T16:25:58.820Z,9.23
2022-11-29T16:28:31.194Z,9.50
2022-11-29T16:31:00.139Z,8.80
2022-11-29T16:33:28.588Z,9.77
2022-11-29T16:36:05.879Z,10.25
2022-11-29T16:38:34.291Z,9.27
2022-11-29T16:41:08.776Z,9.60
2022-11-29T16:43:53.662Z,9.55
2022-11-29T16:46:33.117Z,9.63
2022-11-29T16:49:03.733Z,9.65
2022-11-29T16:51:39.815Z,9.50
2022-11-29T16:54:23.332Z,11.27
2022-11-29T16:56:54.053Z,11.50
2022-11-29T16:59:27.920Z,10.88
2022-11-29T17:01:57.139Z,11.75
2022-11-29T17:04:25.513Z,11.18
2022-11-29T17:06:54.611Z,9.65
2022-11-29T17:09:27.977Z,8.98
2022-11-29T17:11:59.802Z,8.98
2022-11-29T17:14:28.536Z,9.23
2022-11-29T17:16:56.892Z,9.10
2022-11-29T17:19:25.401Z,8.32
2022-11-29T17:21:53.679Z,9.13
2022-11-29T17:24:23.804Z,8.33
2022-11-29T17:26:52.210Z,8.63
2022-11-29T17:29:21.509Z,8.70
2022-11-29T17:31:50.708Z,8.40
2022-11-29T17:36:46.735Z,7.95
2022-11-29T17:39:15.800Z,8.18
2022-11-29T17:41:43.741Z,8.35
2022-11-29T17:44:11.696Z,8.95
2022-11-29T17:46:41.262Z,9.13
2022-11-29T17:49:10.660Z,8.25
2022-11-29T17:51:51.802Z,7.72
2022-11-29T17:54:21.093Z,7.78
2022-11-29T17:56:49.368Z,9.48
2022-11-29T17:59:17.428Z,7.75
2022-11-29T18:01:48.148Z,7.85
2022-11-29T18:04:16.530Z,7.22
2022-11-29T18:06:49.516Z,7.93
2022-11-29T18:09:18.866Z,8.73
2022-11-29T18:11:49.286Z,7.80
2022-11-29T18:14:19.778Z,7.72
2022-11-29T18:16:49.247Z,8.50
2022-11-29T18:19:19.832Z,7.70
2022-11-29T18:21:47.950Z,9.32
2022-11-29T18:24:16.257Z,11.52
2022-11-29T18:26:44.704Z,9.57
2022-11-29T18:29:12.726Z,13.07
2022-11-29T18:31:42.382Z,9.20
2022-11-29T18:34:14.152Z,8.10
2022-11-29T18:36:44.297Z,8.10
2022-11-29T18:39:15.131Z,7.75
2022-11-29T18:41:44.599Z,7.38
2022-11-29T18:44:14.346Z,8.02
2022-11-29T18:46:44.015Z,7.60
2022-11-29T18:49:15.203Z,7.70
2022-11-29T18:51:45.000Z,7.32
2022-11-29T18:54:13.855Z,7.22
2022-11-29T18:56:42.348Z,7.83
2022-11-29T18:59:12.333Z,7.28
2022-11-29T19:01:42.814Z,7.13
2022-11-29T19:04:14.780Z,7.55
2022-11-29T19:06:43.450Z,7.50
2022-11-29T19:09:14.949Z,7.00
2022-11-29T19:11:43.359Z,6.25
2022-11-29T19:14:13.102Z,7.40
2022-11-29T19:16:43.210Z,7.45
2022-11-29T19:19:11.333Z,7.70
2022-11-29T19:21:41.419Z,7.85
2022-11-29T19:24:14.998Z,8.70
2022-11-29T19:26:44.849Z,7.90
2022-11-29T19:29:14.050Z,7.20
2022-11-29T19:31:42.640Z,7.82
2022-11-29T19:34:10.916Z,7.53
2022-11-29T19:36:43.311Z,6.85
2022-11-29T19:39:13.216Z,7.20
2022-11-29T19:46:48.739Z,6.35
2022-11-29T19:49:19.327Z,7.28
2022-11-29T19:52:02.213Z,9.73
2022-11-29T19:54:30.125Z,9.93
2022-11-29T19:57:04.076Z,8.15
2022-11-29T19:59:33.436Z,7.95
2022-11-29T20:02:05.070Z,7.20
2022-11-29T20:04:37.606Z,7.75
2022-11-29T20:07:06.935Z,8.00
2022-11-29T20:12:02.547Z,7.68
2022-11-29T20:14:30.470Z,7.15
2022-11-29T20:16:58.356Z,7.45
2022-11-29T20:19:28.064Z,6.85
2022-11-29T20:21:56.060Z,7.30
2022-11-29T20:24:32.188Z,7.85
2022-11-29T20:27:02.863Z,7.43
2022-11-29T20:29:32.787Z,8.40
2022-11-29T20:32:00.730Z,7.28
2022-11-29T20:34:29.124Z,7.60
2022-11-29T20:37:12.930Z,7.70
2022-11-29T20:39:48.112Z,6.88
2022-11-29T20:42:44.396Z,7.40
2022-11-29T20:45:14.834Z,7.30
2022-11-29T20:47:50.224Z,7.30
2022-11-29T20:50:23.259Z,6.13
2022-11-29T20:53:03.500Z,7.43
2022-11-29T20:55:32.807Z,6.93
2022-11-29T21:00:28.454Z,6.40
2022-11-29T21:02:56.407Z,6.75
2022-11-29T21:05:24.395Z,6.60
2022-11-29T21:07:52.707Z,7.90
2022-11-29T21:10:21.917Z,8.43
2022-11-29T21:12:51.970Z,6.47
2022-11-29T21:15:20.827Z,6.28
2022-11-29T21:17:49.401Z,6.45
2022-11-29T21:20:22.445Z,6.90
2022-11-29T21:22:57.994Z,6.82
2022-11-29T21:25:37.572Z,6.95
2022-11-29T21:28:13.067Z,7.60
2022-11-29T21:30:42.229Z,6.55
2022-11-29T21:33:11.266Z,6.32
2022-11-29T21:35:40.979Z,6.30
2022-11-29T21:38:14.669Z,7.15
2022-11-29T21:40:42.639Z,7.10
2022-11-29T21:43:11.959Z,6.88
2022-11-29T21:48:28.619Z,6.32
2022-11-29T21:50:57.661Z,7.50
2022-11-29T21:53:25.625Z,6.80
2022-11-29T21:55:57.863Z,6.50
2022-11-29T21:58:29.261Z,6.72
2022-11-29T22:00:57.263Z,6.38
2022-11-29T22:03:25.173Z,7.07
2022-11-29T22:05:53.117Z,8.13
2022-11-29T22:08:21.057Z,7.53
2022-11-29T22:10:49.009Z,7.25
2022-11-29T22:13:16.952Z,7.53
2022-11-29T22:15:46.305Z,6.88
2022-11-29T22:18:14.242Z,7.50
2022-11-29T22:20:42.191Z,7.40
2022-11-29T22:23:10.147Z,7.10
2022-11-29T22:25:38.098Z,7.85
2022-11-29T22:28:06.126Z,7.00
2022-11-29T22:30:35.860Z,6.95
2022-11-29T22:33:10.289Z,7.60
2022-11-29T22:35:44.019Z,7.45
2022-11-29T22:38:11.976Z,7.20
2022-11-29T22:40:40.573Z,6.75
2022-11-29T22:43:08.527Z,6.32
2022-11-29T22:45:36.479Z,6.90
2022-11-29T22:48:06.183Z,6.45
2022-11-29T22:50:34.209Z,6.72
2022-11-29T22:53:02.205Z,6.13
2022-11-29T22:55:30.207Z,6.18
2022-11-29T22:57:58.179Z,6.05
2022-11-29T23:00:26.258Z,6.35
2022-11-29T23:02:57.628Z,5.43
2022-11-29T23:05:32.128Z,6.13
2022-11-29T23:08:00.687Z,5.50
2022-11-29T23:10:28.733Z,5.05
2022-11-29T23:12:56.655Z,5.00
2022-11-29T23:15:24.717Z,5.18
2022-11-29T23:17:53.355Z,4.45
2022-11-29T23:20:21.371Z,4.47
2022-11-29T23:22:50.786Z,4.53
2022-11-29T23:25:18.958Z,5.28
2022-11-29T23:27:46.903Z,5.28
2022-11-29T23:30:15.545Z,4.47
2022-11-29T23:32:43.518Z,4.80
2022-11-29T23:35:11.433Z,4.78
2022-11-29T23:37:40.571Z,4.00
2022-11-29T23:40:11.418Z,4.07
2022-11-29T23:42:42.423Z,4.38
2022-11-29T23:45:12.994Z,4.47
2022-11-29T23:47:40.961Z,4.20
2022-11-29T23:50:10.715Z,4.55
2022-11-29T23:52:39.039Z,4.60
2022-11-29T23:55:07.747Z,4.23
2022-11-29T23:57:37.008Z,4.80
